sensor_id;sensor_type;location;lat;lon;timestamp;P1;durP1;ratioP1;P2;durP2;ratioP2
75837;SDS011;64480;52.040;113.502;2022-12-29T00:02:04;78.20;;;32.05;;
75837;SDS011;64480;52.040;113.502;2022-12-29T00:05:25;39.05;;;25.45;;
75837;SDS011;64480;52.040;113.502;2022-12-29T00:08:53;46.65;;;28.27;;
75837;SDS011;64480;52.040;113.502;2022-12-29T00:12:14;39.70;;;20.50;;
75837;SDS011;64480;52.040;113.502;2022-12-29T00:15:40;33.22;;;23.85;;
75837;SDS011;64480;52.040;113.502;2022-12-29T00:18:59;34.58;;;18.58;;
75837;SDS011;64480;52.040;113.502;2022-12-29T00:22:17;48.08;;;19.42;;
75837;SDS011;64480;52.040;113.502;2022-12-29T00:25:56;34.85;;;20.85;;
75837;SDS011;64480;52.040;113.502;2022-12-29T00:29:33;76.38;;;29.13;;
75837;SDS011;64480;52.040;113.502;2022-12-29T00:33:10;44.47;;;19.63;;
75837;SDS011;64480;52.040;113.502;2022-12-29T00:44:05;36.97;;;22.20;;
75837;SDS011;64480;52.040;113.502;2022-12-29T00:47:28;48.80;;;28.30;;
75837;SDS011;64480;52.040;113.502;2022-12-29T00:50:46;78.10;;;34.40;;
75837;SDS011;64480;52.040;113.502;2022-12-29T00:54:07;85.47;;;46.17;;
75837;SDS011;64480;52.040;113.502;2022-12-29T00:57:32;58.45;;;32.33;;
75837;SDS011;64480;52.040;113.502;2022-12-29T01:00:52;93.63;;;39.85;;
75837;SDS011;64480;52.040;113.502;2022-12-29T01:04:19;78.10;;;35.95;;
75837;SDS011;64480;52.040;113.502;2022-12-29T01:12:38;73.30;;;39.25;;
75837;SDS011;64480;52.040;113.502;2022-12-29T01:16:14;88.90;;;41.17;;
75837;SDS011;64480;52.040;113.502;2022-12-29T01:19:32;229.05;;;87.60;;
75837;SDS011;64480;52.040;113.502;2022-12-29T02:55:28;126.60;;;53.90;;
75837;SDS011;64480;52.040;113.502;2022-12-29T02:58:56;95.68;;;45.67;;
75837;SDS011;64480;52.040;113.502;2022-12-29T03:06:03;122.35;;;54.88;;
75837;SDS011;64480;52.040;113.502;2022-12-29T03:16:59;120.07;;;55.47;;
75837;SDS011;64480;52.040;113.502;2022-12-29T03:20:52;92.00;;;46.97;;
75837;SDS011;64480;52.040;113.502;2022-12-29T03:24:36;114.00;;;56.92;;
75837;SDS011;64480;52.040;113.502;2022-12-29T03:28:09;128.85;;;59.33;;
75837;SDS011;64480;52.040;113.502;2022-12-29T03:31:57;129.77;;;51.72;;
75837;SDS011;64480;52.040;113.502;2022-12-29T03:35:17;173.05;;;69.03;;
75837;SDS011;64480;52.040;113.502;2022-12-29T03:45:56;103.38;;;55.08;;
75837;SDS011;64480;52.040;113.502;2022-12-29T03:49:17;79.72;;;38.42;;
75837;SDS011;64480;52.040;113.502;2022-12-29T03:52:38;164.02;;;73.47;;
75837;SDS011;64480;52.040;113.502;2022-12-29T03:55:58;89.03;;;51.28;;
75837;SDS011;64480;52.040;113.502;2022-12-29T03:59:19;147.15;;;60.80;;
75837;SDS011;64480;52.040;113.502;2022-12-29T04:08:00;137.30;;;57.85;;
75837;SDS011;64480;52.040;113.502;2022-12-29T04:11:33;116.50;;;54.70;;
75837;SDS011;64480;52.040;113.502;2022-12-29T04:14:57;124.05;;;66.80;;
75837;SDS011;64480;52.040;113.502;2022-12-29T04:18:15;111.40;;;52.70;;
75837;SDS011;64480;52.040;113.502;2022-12-29T04:21:33;96.30;;;51.85;;
75837;SDS011;64480;52.040;113.502;2022-12-29T04:24:59;156.80;;;65.95;;
75837;SDS011;64480;52.040;113.502;2022-12-29T04:28:21;99.18;;;43.83;;
75837;SDS011;64480;52.040;113.502;2022-12-29T04:31:59;108.35;;;57.47;;
75837;SDS011;64480;52.040;113.502;2022-12-29T04:35:22;98.38;;;49.15;;
75837;SDS011;64480;52.040;113.502;2022-12-29T04:38:46;101.60;;;49.75;;
75837;SDS011;64480;52.040;113.502;2022-12-29T04:42:09;133.32;;;58.13;;
75837;SDS011;64480;52.040;113.502;2022-12-29T04:45:33;165.73;;;73.38;;
75837;SDS011;64480;52.040;113.502;2022-12-29T04:49:29;107.95;;;49.40;;
75837;SDS011;64480;52.040;113.502;2022-12-29T04:53:08;193.10;;;79.85;;
75837;SDS011;64480;52.040;113.502;2022-12-29T04:56:38;180.50;;;70.25;;
75837;SDS011;64480;52.040;113.502;2022-12-29T04:59:55;154.77;;;67.53;;
75837;SDS011;64480;52.040;113.502;2022-12-29T05:03:17;179.43;;;67.57;;
75837;SDS011;64480;52.040;113.502;2022-12-29T05:06:44;164.13;;;63.58;;
75837;SDS011;64480;52.040;113.502;2022-12-29T05:10:13;164.77;;;70.82;;
75837;SDS011;64480;52.040;113.502;2022-12-29T05:13:44;228.32;;;84.57;;
75837;SDS011;64480;52.040;113.502;2022-12-29T05:17:12;169.32;;;73.28;;
75837;SDS011;64480;52.040;113.502;2022-12-29T05:24:42;192.73;;;79.32;;
75837;SDS011;64480;52.040;113.502;2022-12-29T05:28:43;170.65;;;67.05;;
75837;SDS011;64480;52.040;113.502;2022-12-29T05:32:54;138.10;;;66.85;;
75837;SDS011;64480;52.040;113.502;2022-12-29T05:36:58;169.95;;;65.22;;
75837;SDS011;64480;52.040;113.502;2022-12-29T05:40:34;125.70;;;51.88;;
75837;SDS011;64480;52.040;113.502;2022-12-29T05:44:18;124.75;;;46.55;;
75837;SDS011;64480;52.040;113.502;2022-12-29T05:48:38;134.57;;;51.35;;
75837;SDS011;64480;52.040;113.502;2022-12-29T05:52:20;131.00;;;45.95;;
75837;SDS011;64480;52.040;113.502;2022-12-29T05:56:23;66.90;;;29.30;;
75837;SDS011;64480;52.040;113.502;2022-12-29T06:00:14;79.45;;;35.17;;
75837;SDS011;64480;52.040;113.502;2022-12-29T06:04:11;99.13;;;35.10;;
75837;SDS011;64480;52.040;113.502;2022-12-29T06:18:26;134.32;;;47.45;;
75837;SDS011;64480;52.040;113.502;2022-12-29T06:22:08;109.88;;;44.55;;
75837;SDS011;64480;52.040;113.502;2022-12-29T06:28:53;117.80;;;46.65;;
75837;SDS011;64480;52.040;113.502;2022-12-29T06:36:46;133.60;;;54.05;;
75837;SDS011;64480;52.040;113.502;2022-12-29T06:40:20;122.43;;;49.25;;
75837;SDS011;64480;52.040;113.502;2022-12-29T06:44:41;113.10;;;43.13;;
75837;SDS011;64480;52.040;113.502;2022-12-29T06:48:39;116.68;;;43.50;;
75837;SDS011;64480;52.040;113.502;2022-12-29T07:00:17;89.45;;;37.30;;
75837;SDS011;64480;52.040;113.502;2022-12-29T07:03:44;108.70;;;39.30;;
75837;SDS011;64480;52.040;113.502;2022-12-29T07:10:57;108.53;;;45.45;;
75837;SDS011;64480;52.040;113.502;2022-12-29T07:14:14;168.05;;;56.90;;
75837;SDS011;64480;52.040;113.502;2022-12-29T07:21:45;82.30;;;37.72;;
75837;SDS011;64480;52.040;113.502;2022-12-29T07:32:49;126.85;;;47.33;;
75837;SDS011;64480;52.040;113.502;2022-12-29T07:36:17;134.95;;;50.28;;
75837;SDS011;64480;52.040;113.502;2022-12-29T07:39:49;113.10;;;48.85;;
75837;SDS011;64480;52.040;113.502;2022-12-29T07:43:10;115.15;;;51.22;;
75837;SDS011;64480;52.040;113.502;2022-12-29T07:46:49;128.40;;;46.72;;
75837;SDS011;64480;52.040;113.502;2022-12-29T07:53:42;129.73;;;48.38;;
75837;SDS011;64480;52.040;113.502;2022-12-29T07:57:09;105.68;;;42.28;;
75837;SDS011;64480;52.040;113.502;2022-12-29T08:01:00;110.55;;;47.55;;
75837;SDS011;64480;52.040;113.502;2022-12-29T08:04:26;117.57;;;45.45;;
75837;SDS011;64480;52.040;113.502;2022-12-29T08:07:53;121.38;;;44.00;;
75837;SDS011;64480;52.040;113.502;2022-12-29T08:11:38;129.98;;;47.88;;
75837;SDS011;64480;52.040;113.502;2022-12-29T08:15:18;120.38;;;48.78;;
75837;SDS011;64480;52.040;113.502;2022-12-29T08:18:43;132.80;;;47.25;;
75837;SDS011;64480;52.040;113.502;2022-12-29T08:22:00;106.05;;;43.50;;
75837;SDS011;64480;52.040;113.502;2022-12-29T08:25:17;115.43;;;53.47;;
75837;SDS011;64480;52.040;113.502;2022-12-29T08:32:34;160.75;;;57.67;;
75837;SDS011;64480;52.040;113.502;2022-12-29T08:36:05;101.82;;;47.47;;
75837;SDS011;64480;52.040;113.502;2022-12-29T08:39:34;101.80;;;42.53;;
75837;SDS011;64480;52.040;113.502;2022-12-29T08:42:54;88.20;;;41.70;;
75837;SDS011;64480;52.040;113.502;2022-12-29T08:50:40;111.68;;;44.17;;
75837;SDS011;64480;52.040;113.502;2022-12-29T08:54:14;113.20;;;43.63;;
75837;SDS011;64480;52.040;113.502;2022-12-29T08:57:50;169.00;;;56.45;;
75837;SDS011;64480;52.040;113.502;2022-12-29T09:04:30;112.05;;;48.95;;
75837;SDS011;64480;52.040;113.502;2022-12-29T09:08:07;127.43;;;56.92;;
75837;SDS011;64480;52.040;113.502;2022-12-29T09:11:38;166.10;;;64.88;;
75837;SDS011;64480;52.040;113.502;2022-12-29T09:15:14;157.55;;;64.65;;
75837;SDS011;64480;52.040;113.502;2022-12-29T09:18:35;110.53;;;56.00;;
75837;SDS011;64480;52.040;113.502;2022-12-29T09:29:44;167.77;;;60.28;;
75837;SDS011;64480;52.040;113.502;2022-12-29T09:33:08;157.65;;;68.30;;
75837;SDS011;64480;52.040;113.502;2022-12-29T09:36:47;188.52;;;76.13;;
75837;SDS011;64480;52.040;113.502;2022-12-29T09:40:43;157.57;;;62.78;;
75837;SDS011;64480;52.040;113.502;2022-12-29T09:44:20;173.68;;;68.63;;
75837;SDS011;64480;52.040;113.502;2022-12-29T09:48:21;185.27;;;68.72;;
75837;SDS011;64480;52.040;113.502;2022-12-29T09:51:52;187.32;;;72.55;;
75837;SDS011;64480;52.040;113.502;2022-12-29T09:55:14;188.90;;;70.05;;
75837;SDS011;64480;52.040;113.502;2022-12-29T09:58:58;175.95;;;56.95;;
75837;SDS011;64480;52.040;113.502;2022-12-29T10:03:16;118.15;;;56.42;;
75837;SDS011;64480;52.040;113.502;2022-12-29T10:07:45;143.75;;;59.35;;
75837;SDS011;64480;52.040;113.502;2022-12-29T10:15:11;173.80;;;69.30;;
75837;SDS011;64480;52.040;113.502;2022-12-29T10:26:23;200.60;;;81.18;;
75837;SDS011;64480;52.040;113.502;2022-12-29T10:29:56;204.85;;;83.95;;
75837;SDS011;64480;52.040;113.502;2022-12-29T10:33:20;212.63;;;88.75;;
75837;SDS011;64480;52.040;113.502;2022-12-29T10:36:44;220.55;;;81.28;;
75837;SDS011;64480;52.040;113.502;2022-12-29T10:40:36;170.45;;;81.03;;
75837;SDS011;64480;52.040;113.502;2022-12-29T10:44:22;210.43;;;83.95;;
75837;SDS011;64480;52.040;113.502;2022-12-29T10:48:12;228.35;;;98.78;;
75837;SDS011;64480;52.040;113.502;2022-12-29T10:51:46;240.38;;;109.35;;
75837;SDS011;64480;52.040;113.502;2022-12-29T10:55:09;212.48;;;90.90;;
75837;SDS011;64480;52.040;113.502;2022-12-29T10:58:47;202.30;;;80.65;;
75837;SDS011;64480;52.040;113.502;2022-12-29T11:12:28;142.43;;;59.78;;
75837;SDS011;64480;52.040;113.502;2022-12-29T11:15:59;192.57;;;76.40;;
75837;SDS011;64480;52.040;113.502;2022-12-29T11:19:28;217.15;;;76.32;;
75837;SDS011;64480;52.040;113.502;2022-12-29T11:37:30;286.55;;;115.47;;
75837;SDS011;64480;52.040;113.502;2022-12-29T11:40:42;308.15;;;126.13;;
75837;SDS011;64480;52.040;113.502;2022-12-29T11:43:48;265.20;;;116.03;;
75837;SDS011;64480;52.040;113.502;2022-12-29T11:47:01;240.43;;;102.68;;
75837;SDS011;64480;52.040;113.502;2022-12-29T11:50:25;251.10;;;109.43;;
75837;SDS011;64480;52.040;113.502;2022-12-29T11:53:45;338.20;;;133.10;;
75837;SDS011;64480;52.040;113.502;2022-12-29T11:57:09;301.42;;;124.95;;
75837;SDS011;64480;52.040;113.502;2022-12-29T12:00:23;303.27;;;124.22;;
75837;SDS011;64480;52.040;113.502;2022-12-29T12:04:03;286.42;;;122.78;;
75837;SDS011;64480;52.040;113.502;2022-12-29T12:08:01;198.30;;;95.93;;
75837;SDS011;64480;52.040;113.502;2022-12-29T12:11:37;287.50;;;118.10;;
75837;SDS011;64480;52.040;113.502;2022-12-29T12:15:08;265.90;;;111.53;;
75837;SDS011;64480;52.040;113.502;2022-12-29T12:21:39;216.38;;;91.28;;
75837;SDS011;64480;52.040;113.502;2022-12-29T12:24:59;209.80;;;79.88;;
75837;SDS011;64480;52.040;113.502;2022-12-29T12:32:52;364.02;;;136.73;;
75837;SDS011;64480;52.040;113.502;2022-12-29T12:44:18;293.20;;;119.45;;
75837;SDS011;64480;52.040;113.502;2022-12-29T12:54:23;242.55;;;105.75;;
75837;SDS011;64480;52.040;113.502;2022-12-29T12:57:52;204.93;;;91.22;;
75837;SDS011;64480;52.040;113.502;2022-12-29T13:15:43;146.27;;;58.72;;
75837;SDS011;64480;52.040;113.502;2022-12-29T13:19:04;105.95;;;46.97;;
75837;SDS011;64480;52.040;113.502;2022-12-29T13:26:21;123.88;;;48.05;;
75837;SDS011;64480;52.040;113.502;2022-12-29T13:37:51;117.07;;;48.65;;
75837;SDS011;64480;52.040;113.502;2022-12-29T13:41:33;115.25;;;52.38;;
75837;SDS011;64480;52.040;113.502;2022-12-29T13:45:04;151.25;;;60.17;;
75837;SDS011;64480;52.040;113.502;2022-12-29T13:52:45;96.45;;;44.28;;
75837;SDS011;64480;52.040;113.502;2022-12-29T13:56:42;100.05;;;40.33;;
75837;SDS011;64480;52.040;113.502;2022-12-29T14:04:02;77.38;;;35.15;;
75837;SDS011;64480;52.040;113.502;2022-12-29T14:07:37;78.75;;;39.80;;
75837;SDS011;64480;52.040;113.502;2022-12-29T14:11:15;84.20;;;33.85;;
75837;SDS011;64480;52.040;113.502;2022-12-29T14:14:44;80.72;;;33.33;;
75837;SDS011;64480;52.040;113.502;2022-12-29T14:22:25;147.05;;;56.10;;
75837;SDS011;64480;52.040;113.502;2022-12-29T14:29:40;127.30;;;60.55;;
75837;SDS011;64480;52.040;113.502;2022-12-29T14:40:05;70.10;;;38.80;;
75837;SDS011;64480;52.040;113.502;2022-12-29T14:43:23;158.23;;;38.35;;
75837;SDS011;64480;52.040;113.502;2022-12-29T14:53:42;17.52;;;14.10;;
75837;SDS011;64480;52.040;113.502;2022-12-29T14:57:10;78.57;;;36.35;;
75837;SDS011;64480;52.040;113.502;2022-12-29T15:00:47;63.53;;;30.38;;
75837;SDS011;64480;52.040;113.502;2022-12-29T15:04:31;57.60;;;34.80;;
75837;SDS011;64480;52.040;113.502;2022-12-29T15:07:51;103.63;;;42.85;;
75837;SDS011;64480;52.040;113.502;2022-12-29T15:11:19;53.67;;;27.65;;
75837;SDS011;64480;52.040;113.502;2022-12-29T15:17:52;64.20;;;25.27;;
75837;SDS011;64480;52.040;113.502;2022-12-29T15:21:35;54.25;;;27.92;;
75837;SDS011;64480;52.040;113.502;2022-12-29T15:24:49;54.03;;;25.52;;
75837;SDS011;64480;52.040;113.502;2022-12-29T15:28:03;98.15;;;36.30;;
75837;SDS011;64480;52.040;113.502;2022-12-29T15:31:14;73.85;;;35.20;;
75837;SDS011;64480;52.040;113.502;2022-12-29T15:34:31;72.88;;;40.47;;
75837;SDS011;64480;52.040;113.502;2022-12-29T15:37:39;96.78;;;47.53;;
75837;SDS011;64480;52.040;113.502;2022-12-29T15:41:04;124.43;;;53.10;;
75837;SDS011;64480;52.040;113.502;2022-12-29T15:44:14;98.50;;;45.95;;
75837;SDS011;64480;52.040;113.502;2022-12-29T15:47:33;86.45;;;40.15;;
75837;SDS011;64480;52.040;113.502;2022-12-29T15:50:55;106.20;;;44.90;;
75837;SDS011;64480;52.040;113.502;2022-12-29T15:54:15;110.85;;;50.67;;
75837;SDS011;64480;52.040;113.502;2022-12-29T15:57:30;165.60;;;60.17;;
75837;SDS011;64480;52.040;113.502;2022-12-29T16:00:54;173.73;;;80.00;;
75837;SDS011;64480;52.040;113.502;2022-12-29T16:04:16;103.70;;;56.55;;
75837;SDS011;64480;52.040;113.502;2022-12-29T16:07:27;227.63;;;87.32;;
75837;SDS011;64480;52.040;113.502;2022-12-29T16:10:45;203.93;;;87.43;;
75837;SDS011;64480;52.040;113.502;2022-12-29T16:13:50;132.13;;;59.38;;
75837;SDS011;64480;52.040;113.502;2022-12-29T16:17:17;148.43;;;58.33;;
75837;SDS011;64480;52.040;113.502;2022-12-29T16:20:39;119.18;;;61.65;;
75837;SDS011;64480;52.040;113.502;2022-12-29T16:24:00;167.90;;;71.90;;
75837;SDS011;64480;52.040;113.502;2022-12-29T16:27:33;210.50;;;84.88;;
75837;SDS011;64480;52.040;113.502;2022-12-29T16:30:40;180.77;;;86.32;;
75837;SDS011;64480;52.040;113.502;2022-12-29T16:33:58;197.40;;;83.07;;
75837;SDS011;64480;52.040;113.502;2022-12-29T16:38:10;140.13;;;67.38;;
75837;SDS011;64480;52.040;113.502;2022-12-29T16:41:28;194.02;;;84.40;;
75837;SDS011;64480;52.040;113.502;2022-12-29T16:44:45;144.95;;;79.57;;
75837;SDS011;64480;52.040;113.502;2022-12-29T16:51:06;237.52;;;109.80;;
75837;SDS011;64480;52.040;113.502;2022-12-29T16:54:33;275.35;;;123.63;;
75837;SDS011;64480;52.040;113.502;2022-12-29T16:58:15;257.08;;;119.15;;
75837;SDS011;64480;52.040;113.502;2022-12-29T17:01:28;224.07;;;104.18;;
75837;SDS011;64480;52.040;113.502;2022-12-29T17:05:07;220.55;;;93.28;;
75837;SDS011;64480;52.040;113.502;2022-12-29T17:08:20;233.88;;;99.50;;
75837;SDS011;64480;52.040;113.502;2022-12-29T17:11:41;310.33;;;138.43;;
75837;SDS011;64480;52.040;113.502;2022-12-29T17:18:38;260.55;;;124.15;;
75837;SDS011;64480;52.040;113.502;2022-12-29T17:21:55;218.57;;;102.63;;
75837;SDS011;64480;52.040;113.502;2022-12-29T17:25:21;248.18;;;120.25;;
75837;SDS011;64480;52.040;113.502;2022-12-29T17:32:06;201.70;;;103.72;;
75837;SDS011;64480;52.040;113.502;2022-12-29T17:35:28;112.68;;;70.53;;
75837;SDS011;64480;52.040;113.502;2022-12-29T17:38:46;322.42;;;142.13;;
75837;SDS011;64480;52.040;113.502;2022-12-29T17:42:09;124.47;;;57.28;;
75837;SDS011;64480;52.040;113.502;2022-12-29T17:48:51;98.68;;;60.78;;
75837;SDS011;64480;52.040;113.502;2022-12-29T17:52:18;146.15;;;74.43;;
75837;SDS011;64480;52.040;113.502;2022-12-29T17:55:37;255.15;;;112.30;;
75837;SDS011;64480;52.040;113.502;2022-12-29T17:58:50;232.73;;;111.25;;
75837;SDS011;64480;52.040;113.502;2022-12-29T18:02:22;218.80;;;104.85;;
75837;SDS011;64480;52.040;113.502;2022-12-29T18:05:40;267.52;;;119.97;;
75837;SDS011;64480;52.040;113.502;2022-12-29T18:08:57;272.77;;;119.55;;
75837;SDS011;64480;52.040;113.502;2022-12-29T18:12:28;424.65;;;160.55;;
75837;SDS011;64480;52.040;113.502;2022-12-29T18:15:48;431.90;;;160.43;;
75837;SDS011;64480;52.040;113.502;2022-12-29T18:19:05;412.33;;;159.98;;
75837;SDS011;64480;52.040;113.502;2022-12-29T18:22:27;283.85;;;136.23;;
75837;SDS011;64480;52.040;113.502;2022-12-29T18:29:41;201.15;;;98.28;;
75837;SDS011;64480;52.040;113.502;2022-12-29T18:32:49;207.25;;;108.38;;
75837;SDS011;64480;52.040;113.502;2022-12-29T18:36:09;283.88;;;115.60;;
75837;SDS011;64480;52.040;113.502;2022-12-29T18:39:35;206.45;;;95.20;;
75837;SDS011;64480;52.040;113.502;2022-12-29T18:43:05;251.75;;;107.38;;
75837;SDS011;64480;52.040;113.502;2022-12-29T18:46:19;239.27;;;114.32;;
75837;SDS011;64480;52.040;113.502;2022-12-29T18:53:40;203.25;;;89.22;;
75837;SDS011;64480;52.040;113.502;2022-12-29T18:56:47;234.35;;;105.05;;
75837;SDS011;64480;52.040;113.502;2022-12-29T19:00:04;213.65;;;91.35;;
75837;SDS011;64480;52.040;113.502;2022-12-29T19:03:24;158.57;;;70.47;;
75837;SDS011;64480;52.040;113.502;2022-12-29T19:06:43;199.27;;;94.38;;
75837;SDS011;64480;52.040;113.502;2022-12-29T19:09:51;137.85;;;75.47;;
75837;SDS011;64480;52.040;113.502;2022-12-29T19:13:10;138.13;;;80.35;;
75837;SDS011;64480;52.040;113.502;2022-12-29T19:16:27;223.05;;;97.32;;
75837;SDS011;64480;52.040;113.502;2022-12-29T19:19:44;188.25;;;75.13;;
75837;SDS011;64480;52.040;113.502;2022-12-29T19:23:01;165.35;;;67.22;;
75837;SDS011;64480;52.040;113.502;2022-12-29T19:26:28;202.20;;;85.25;;
75837;SDS011;64480;52.040;113.502;2022-12-29T19:29:43;183.50;;;74.82;;
75837;SDS011;64480;52.040;113.502;2022-12-29T19:32:55;187.57;;;73.70;;
75837;SDS011;64480;52.040;113.502;2022-12-29T19:36:12;197.20;;;74.82;;
75837;SDS011;64480;52.040;113.502;2022-12-29T19:39:24;168.55;;;69.60;;
75837;SDS011;64480;52.040;113.502;2022-12-29T19:42:48;135.32;;;58.50;;
75837;SDS011;64480;52.040;113.502;2022-12-29T19:46:07;168.55;;;59.67;;
75837;SDS011;64480;52.040;113.502;2022-12-29T19:49:25;146.07;;;59.38;;
75837;SDS011;64480;52.040;113.502;2022-12-29T19:52:42;167.85;;;64.47;;
75837;SDS011;64480;52.040;113.502;2022-12-29T19:56:02;127.88;;;55.38;;
75837;SDS011;64480;52.040;113.502;2022-12-29T19:59:27;79.72;;;41.33;;
75837;SDS011;64480;52.040;113.502;2022-12-29T20:02:48;178.50;;;66.47;;
75837;SDS011;64480;52.040;113.502;2022-12-29T20:06:13;226.73;;;86.85;;
75837;SDS011;64480;52.040;113.502;2022-12-29T20:09:19;218.40;;;81.95;;
75837;SDS011;64480;52.040;113.502;2022-12-29T20:12:36;185.88;;;69.32;;
75837;SDS011;64480;52.040;113.502;2022-12-29T20:15:58;238.07;;;81.50;;
75837;SDS011;64480;52.040;113.502;2022-12-29T20:19:34;204.63;;;68.28;;
75837;SDS011;64480;52.040;113.502;2022-12-29T20:22:44;167.18;;;68.20;;
75837;SDS011;64480;52.040;113.502;2022-12-29T20:25:52;208.45;;;73.53;;
75837;SDS011;64480;52.040;113.502;2022-12-29T20:29:33;211.50;;;77.40;;
75837;SDS011;64480;52.040;113.502;2022-12-29T20:32:53;115.07;;;44.60;;
75837;SDS011;64480;52.040;113.502;2022-12-29T20:36:07;255.75;;;90.78;;
75837;SDS011;64480;52.040;113.502;2022-12-29T20:39:17;245.45;;;83.35;;
75837;SDS011;64480;52.040;113.502;2022-12-29T20:42:36;87.93;;;40.70;;
75837;SDS011;64480;52.040;113.502;2022-12-29T20:45:42;113.03;;;46.90;;
75837;SDS011;64480;52.040;113.502;2022-12-29T20:48:59;87.55;;;40.70;;
75837;SDS011;64480;52.040;113.502;2022-12-29T20:52:16;142.18;;;50.45;;
75837;SDS011;64480;52.040;113.502;2022-12-29T20:55:34;180.00;;;61.63;;
75837;SDS011;64480;52.040;113.502;2022-12-29T20:58:43;146.27;;;49.33;;
75837;SDS011;64480;52.040;113.502;2022-12-29T21:02:00;105.88;;;43.67;;
75837;SDS011;64480;52.040;113.502;2022-12-29T21:05:11;239.90;;;79.28;;
75837;SDS011;64480;52.040;113.502;2022-12-29T21:08:30;200.98;;;67.63;;
75837;SDS011;64480;52.040;113.502;2022-12-29T21:11:49;169.35;;;68.15;;
75837;SDS011;64480;52.040;113.502;2022-12-29T21:15:06;245.73;;;101.68;;
75837;SDS011;64480;52.040;113.502;2022-12-29T21:18:14;288.08;;;110.05;;
75837;SDS011;64480;52.040;113.502;2022-12-29T21:21:31;291.30;;;111.65;;
75837;SDS011;64480;52.040;113.502;2022-12-29T21:24:37;207.38;;;90.88;;
75837;SDS011;64480;52.040;113.502;2022-12-29T21:27:54;115.90;;;46.35;;
75837;SDS011;64480;52.040;113.502;2022-12-29T21:31:16;138.02;;;59.08;;
75837;SDS011;64480;52.040;113.502;2022-12-29T21:34:39;171.73;;;72.50;;
75837;SDS011;64480;52.040;113.502;2022-12-29T21:37:50;132.23;;;52.50;;
75837;SDS011;64480;52.040;113.502;2022-12-29T21:41:07;159.25;;;61.58;;
75837;SDS011;64480;52.040;113.502;2022-12-29T21:44:14;127.68;;;62.65;;
75837;SDS011;64480;52.040;113.502;2022-12-29T21:47:53;145.30;;;53.72;;
75837;SDS011;64480;52.040;113.502;2022-12-29T21:51:32;147.65;;;59.03;;
75837;SDS011;64480;52.040;113.502;2022-12-29T21:55:12;107.40;;;51.88;;
75837;SDS011;64480;52.040;113.502;2022-12-29T21:59:16;62.10;;;32.92;;
75837;SDS011;64480;52.040;113.502;2022-12-29T22:02:38;93.32;;;40.97;;
75837;SDS011;64480;52.040;113.502;2022-12-29T22:06:10;75.30;;;33.80;;
75837;SDS011;64480;52.040;113.502;2022-12-29T22:09:47;42.80;;;23.40;;
75837;SDS011;64480;52.040;113.502;2022-12-29T22:13:22;101.43;;;44.53;;
75837;SDS011;64480;52.040;113.502;2022-12-29T22:16:42;144.50;;;57.80;;
75837;SDS011;64480;52.040;113.502;2022-12-29T22:20:02;140.70;;;54.47;;
75837;SDS011;64480;52.040;113.502;2022-12-29T22:23:08;83.20;;;45.55;;
75837;SDS011;64480;52.040;113.502;2022-12-29T22:26:30;103.95;;;49.25;;
75837;SDS011;64480;52.040;113.502;2022-12-29T22:29:52;162.30;;;72.82;;
75837;SDS011;64480;52.040;113.502;2022-12-29T22:33:09;147.55;;;61.33;;
75837;SDS011;64480;52.040;113.502;2022-12-29T22:36:33;221.27;;;78.63;;
75837;SDS011;64480;52.040;113.502;2022-12-29T22:39:41;81.53;;;49.42;;
75837;SDS011;64480;52.040;113.502;2022-12-29T22:43:02;113.38;;;54.70;;
75837;SDS011;64480;52.040;113.502;2022-12-29T22:46:20;109.70;;;59.03;;
75837;SDS011;64480;52.040;113.502;2022-12-29T22:49:37;125.88;;;63.80;;
75837;SDS011;64480;52.040;113.502;2022-12-29T22:52:57;94.53;;;49.97;;
75837;SDS011;64480;52.040;113.502;2022-12-29T22:56:17;285.10;;;110.45;;
75837;SDS011;64480;52.040;113.502;2022-12-29T22:59:34;383.67;;;138.95;;
75837;SDS011;64480;52.040;113.502;2022-12-29T23:03:00;225.40;;;88.90;;
75837;SDS011;64480;52.040;113.502;2022-12-29T23:06:10;343.55;;;126.50;;
75837;SDS011;64480;52.040;113.502;2022-12-29T23:09:29;422.00;;;151.90;;
75837;SDS011;64480;52.040;113.502;2022-12-29T23:12:49;167.20;;;81.03;;
75837;SDS011;64480;52.040;113.502;2022-12-29T23:19:07;332.75;;;133.82;;
75837;SDS011;64480;52.040;113.502;2022-12-29T23:22:22;215.20;;;87.30;;
75837;SDS011;64480;52.040;113.502;2022-12-29T23:25:44;190.88;;;90.65;;
75837;SDS011;64480;52.040;113.502;2022-12-29T23:29:05;177.75;;;80.90;;
75837;SDS011;64480;52.040;113.502;2022-12-29T23:32:31;154.55;;;75.50;;
75837;SDS011;64480;52.040;113.502;2022-12-29T23:35:37;288.15;;;111.85;;
75837;SDS011;64480;52.040;113.502;2022-12-29T23:38:54;214.32;;;90.55;;
75837;SDS011;64480;52.040;113.502;2022-12-29T23:42:07;144.93;;;70.45;;
75837;SDS011;64480;52.040;113.502;2022-12-29T23:45:24;430.13;;;159.45;;
75837;SDS011;64480;52.040;113.502;2022-12-29T23:48:43;264.60;;;98.07;;
75837;SDS011;64480;52.040;113.502;2022-12-29T23:51:50;345.77;;;124.78;;
75837;SDS011;64480;52.040;113.502;2022-12-29T23:55:22;162.32;;;71.88;;
75837;SDS011;64480;52.040;113.502;2022-12-29T23:58:42;356.45;;;131.15;;
